Data for 01/22/2016

Time Sea-Level Adjusted Pressure Absolute Pressure Temperature Relative Humidity Dew Point   
(mb) (inHg) (mb) (inHg) (C) (F) (%) (C) (F)
00:05 1023 30.21 852 25.16 1.8 35.2 66 -4 24.8
00:10 1023 30.21 852 25.16 0.9 33.7 73 -3.4 25.9
00:15 1023 30.21 852 25.16 -0.5 31.1 77 -4 24.8
00:20 1023 30.21 852 25.16 -0.1 31.9 72 -4.5 23.9
00:25 1023 30.21 852 25.16 0.9 33.6 68 -4.3 24.2
00:30 1023 30.21 852 25.16 1.1 34 68 -4.2 24.5
00:35 1023 30.21 852 25.16 0.7 33.3 70 -4.1 24.6
00:40 1023 30.21 852 25.16 -0.1 31.9 73 -4.3 24.3
00:45 1023 30.21 852 25.16 -0.5 31.1 74 -4.6 23.8
00:50 1023 30.21 852 25.16 -0.5 31.1 76 -4.3 24.2
00:55 1023 30.21 852 25.16 -0.4 31.3 76 -4.1 24.7
01:00 1023 30.21 852 25.16 -0.5 31.1 75 -4.5 24
01:05 1023 30.21 852 25.16 0.1 32.2 71 -4.6 23.8
01:10 1022 30.18 852 25.16 0.5 33 70 -4.4 24.1
01:15 1022 30.18 852 25.16 0.4 32.7 70 -4.4 24.1
01:20 1022 30.18 852 25.16 0.2 32.3 71 -4.4 24.1
01:25 1022 30.18 851 25.13 0.2 32.4 70 -4.7 23.5
01:30 1022 30.18 851 25.13 0.7 33.2 68 -4.5 23.9
01:35 1022 30.18 851 25.13 0.7 33.2 69 -4.4 24
01:40 1022 30.18 851 25.13 0.4 32.7 70 -4.4 24.1
01:45 1022 30.18 851 25.13 0.1 32.2 71 -4.5 24
01:50 1022 30.18 851 25.13 0.6 33.1 67 -4.9 23.2
01:55 1022 30.18 851 25.13 1.1 34 65 -4.7 23.5
02:00 1022 30.18 851 25.13 1.3 34.3 65 -4.6 23.7
02:05 1022 30.18 851 25.13 1.4 34.6 63 -4.8 23.4
02:10 1022 30.18 851 25.13 1.6 34.8 64 -4.5 23.8
02:15 1022 30.18 851 25.13 1.4 34.5 64 -4.6 23.6
02:20 1022 30.18 851 25.13 1.6 34.9 63 -4.6 23.8
02:25 1022 30.18 851 25.13 1.5 34.8 64 -4.4 24
02:30 1021 30.15 851 25.13 1 33.8 68 -4.2 24.4
02:35 1021 30.15 850 25.1 0.7 33.2 67 -4.7 23.6
02:40 1021 30.15 850 25.1 0.8 33.4 69 -4.2 24.4
02:45 1021 30.15 850 25.1 0.3 32.6 73 -4 24.9
02:50 1021 30.15 850 25.1 0.3 32.6 71 -4.4 24.1
02:55 1021 30.15 850 25.1 0.8 33.4 68 -4.5 23.8
03:00 1021 30.15 850 25.1 1.1 33.9 67 -4.3 24.2
03:05 1021 30.15 850 25.1 0.9 33.7 68 -4.3 24.2
03:10 1021 30.15 850 25.1 0.7 33.3 70 -4.1 24.6
03:15 1021 30.15 850 25.1 0.3 32.6 74 -3.7 25.4
03:20 1021 30.15 850 25.1 0.8 33.5 73 -3.4 25.8
03:25 1021 30.15 850 25.1 1.2 34.2 70 -3.7 25.4
03:30 1021 30.15 850 25.1 1.7 35 65 -4.1 24.6
03:35 1021 30.15 850 25.1 1.9 35.5 61 -4.7 23.5
03:40 1021 30.15 850 25.1 2.1 35.9 62 -4.5 23.9
03:45 1021 30.15 850 25.1 1.8 35.2 63 -4.6 23.7
03:50 1021 30.15 850 25.1 1.4 34.5 65 -4.5 24
03:55 1021 30.15 850 25.1 0.7 33.3 69 -4.3 24.2
04:00 1021 30.15 850 25.1 -0.5 31 76 -4.3 24.2
04:05 1021 30.15 850 25.1 -1 30.2 79 -4.2 24.4
04:10 1021 30.15 850 25.1 0.4 32.7 68 -4.8 23.3
04:15 1020 30.12 850 25.1 1.3 34.4 64 -4.7 23.5
04:20 1020 30.12 850 25.1 1.3 34.4 63 -5 23
04:25 1020 30.12 850 25.1 1.3 34.3 65 -4.5 23.8
04:30 1020 30.12 850 25.1 1.1 34 66 -4.6 23.7
04:35 1020 30.12 850 25.1 1 33.8 66 -4.6 23.8
04:40 1020 30.12 850 25.1 1.1 33.9 65 -4.8 23.3
04:45 1020 30.12 850 25.1 1.5 34.7 64 -4.5 23.9
04:50 1020 30.12 850 25.1 0.9 33.7 70 -4 24.9
04:55 1020 30.12 850 25.1 -0.1 31.9 74 -4.2 24.5
05:00 1020 30.12 850 25.1 -0.7 30.8 76 -4.3 24.2
05:05 1020 30.12 850 25.1 -0.8 30.6 76 -4.4 24
05:10 1020 30.12 849 25.07 -0.9 30.5 76 -4.5 23.9
05:15 1020 30.12 849 25.07 -0.8 30.6 77 -4.3 24.3
05:20 1020 30.12 849 25.07 -0.5 31.1 77 -4.1 24.7
05:25 1020 30.12 849 25.07 -0.2 31.7 75 -4.1 24.6
05:30 1020 30.12 849 25.07 -0.3 31.4 75 -4.3 24.2
05:35 1020 30.12 849 25.07 -0.7 30.7 77 -4.3 24.3
05:40 1020 30.12 849 25.07 -1 30.2 78 -4.4 24
05:45 1020 30.12 849 25.07 -1.3 29.7 79 -4.5 23.9
05:50 1020 30.12 849 25.07 -1.4 29.5 81 -4.3 24.3
05:55 1020 30.12 849 25.07 -0.9 30.3 76 -4.6 23.8
06:00 1020 30.12 849 25.07 -1.3 29.6 81 -4.3 24.3
06:05 1020 30.12 849 25.07 -1.3 29.6 79 -4.5 23.9
06:10 1020 30.12 849 25.07 -1.6 29.2 80 -4.6 23.7
06:15 1020 30.12 849 25.07 -1.6 29.2 80 -4.6 23.7
06:20 1020 30.12 849 25.07 -1.6 29.1 80 -4.6 23.7
06:25 1020 30.12 849 25.07 -1.6 29.1 82 -4.4 24.1
06:30 1019 30.09 849 25.07 -1.5 29.3 82 -4.2 24.5
06:35 1019 30.09 849 25.07 -1.1 30.1 79 -4.3 24.3
06:40 1019 30.09 849 25.07 -1.1 30.1 79 -4.3 24.2
06:45 1019 30.09 849 25.07 -0.8 30.6 76 -4.5 23.9
06:50 1020 30.12 849 25.07 -0.6 30.9 78 -4 24.9
06:55 1019 30.09 849 25.07 -0.4 31.3 75 -4.3 24.2
07:00 1019 30.09 849 25.07 -0.8 30.6 76 -4.5 24
07:05 1019 30.09 849 25.07 -1.7 28.9 82 -4.4 24.1
07:10 1019 30.09 849 25.07 -2.2 28.1 79 -5.3 22.4
07:15 1019 30.09 848 25.04 -2.5 27.6 81 -5.3 22.5
07:20 1019 30.09 848 25.04 -2.4 27.6 82 -5.1 22.7
07:25 1019 30.09 848 25.04 -2.3 27.9 81 -5.1 22.8
07:30 1019 30.09 848 25.04 -2.3 27.9 81 -5 23
07:35 1019 30.09 848 25.04 -1.9 28.6 81 -4.7 23.5
07:40 1019 30.09 848 25.04 -1.8 28.8 79 -4.9 23.1
07:45 1019 30.09 848 25.04 -2 28.5 81 -4.8 23.3
07:50 1019 30.09 848 25.04 -1.8 28.8 79 -4.9 23.1
07:55 1019 30.09 848 25.04 -1.6 29.1 78 -4.9 23.2
08:00 1019 30.09 848 25.04 -1.4 29.6 77 -4.9 23.2
08:05 1019 30.09 848 25.04 -1.4 29.5 77 -4.8 23.3
08:10 1019 30.09 848 25.04 -1.5 29.4 79 -4.7 23.6
08:15 1019 30.09 849 25.07 -1 30.2 76 -4.8 23.4
08:20 1020 30.12 849 25.07 -1 30.3 76 -4.6 23.7
08:25 1019 30.09 849 25.07 -1 30.2 76 -4.7 23.6
08:30 1019 30.09 849 25.07 -1.5 29.2 77 -5.1 22.9
08:35 1019 30.09 849 25.07 -2.4 27.6 81 -5.3 22.5
08:40 1019 30.09 849 25.07 -2.6 27.3 81 -5.4 22.2
08:45 1019 30.09 848 25.04 -2.4 27.6 81 -5.3 22.4
08:50 1019 30.09 848 25.04 -2.1 28.3 80 -5 23
08:55 1019 30.09 848 25.04 -1.7 29 79 -4.8 23.3
09:00 1019 30.09 848 25.04 -1.5 29.2 78 -4.8 23.3
09:05 1019 30.09 848 25.04 -1.4 29.5 78 -4.7 23.5
09:10 1019 30.09 848 25.04 -1.3 29.7 78 -4.7 23.6
09:15 1019 30.09 848 25.04 -1.2 29.8 78 -4.6 23.7
09:20 1019 30.09 848 25.04 -1 30.2 77 -4.6 23.7
09:25 1018 30.06 848 25.04 -0.4 31.3 73 -4.7 23.6
09:30 1018 30.06 848 25.04 -0.5 31.1 74 -4.5 23.9
09:35 1018 30.06 848 25.04 -0.8 30.6 77 -4.4 24.1
09:40 1018 30.06 848 25.04 -0.3 31.4 74 -4.5 23.9
09:45 1019 30.09 848 25.04 -0.4 31.3 74 -4.5 23.9
09:50 1019 30.09 848 25.04 -0.5 31.1 74 -4.6 23.8
09:55 1019 30.09 848 25.04 -0.9 30.3 76 -4.6 23.6
10:00 1019 30.09 848 25.04 -1 30.3 76 -4.7 23.6
10:05 1019 30.09 848 25.04 -0.8 30.6 75 -4.6 23.7
10:10 1019 30.09 848 25.04 -0.6 30.9 75 -4.6 23.8
10:15 1019 30.09 848 25.04 -0.6 30.9 75 -4.6 23.8
10:20 1019 30.09 848 25.04 -0.9 30.5 75 -4.7 23.5
10:25 1019 30.09 848 25.04 -1.2 29.8 75 -5 22.9
10:30 1019 30.09 848 25.04 -0.8 30.5 73 -5 23
10:35 1019 30.09 848 25.04 -0.9 30.3 74 -4.9 23.1
10:40 1019 30.09 848 25.04 -0.6 30.9 73 -5 23.1
10:45 1019 30.09 848 25.04 -0.3 31.5 72 -4.8 23.4
10:50 1019 30.09 848 25.04 -0.2 31.7 71 -4.9 23.2
10:55 1018 30.06 848 25.04 0.2 32.4 70 -4.7 23.5
11:00 1018 30.06 848 25.04 -0.1 31.8 73 -4.5 23.9
11:05 1018 30.06 848 25.04 -0.5 31 73 -4.9 23.2
11:10 1018 30.06 848 25.04 -0.4 31.3 72 -4.8 23.4
11:15 1018 30.06 847 25.01 -0.5 31.2 73 -4.7 23.5
11:20 1018 30.06 847 25.01 -0.2 31.6 72 -4.7 23.5
11:25 1018 30.06 847 25.01 0.1 32.3 71 -4.5 23.9
11:30 1018 30.06 847 25.01 0.4 32.7 70 -4.4 24.1
11:35 1018 30.06 847 25.01 0.6 33.1 69 -4.4 24.1
11:40 1018 30.06 847 25.01 0.7 33.3 70 -4.2 24.4
11:45 1018 30.06 847 25.01 0.6 33.1 70 -4.3 24.3
11:50 1018 30.06 847 25.01 0.8 33.5 69 -4.2 24.5
11:55 1018 30.06 847 25.01 0.9 33.6 69 -4.2 24.5
12:00 1018 30.06 847 25.01 0.9 33.6 69 -4.1 24.6
12:05 1017 30.03 847 25.01 0.8 33.4 69 -4.2 24.4
12:10 1017 30.03 847 25.01 0.7 33.3 70 -4.1 24.6
12:15 1017 30.03 847 25.01 0.8 33.5 69 -4.3 24.3
12:20 1017 30.03 847 25.01 1.1 34 68 -4.1 24.6
12:25 1017 30.03 847 25.01 1.3 34.4 68 -3.9 24.9
12:30 1017 30.03 846 24.98 1.4 34.5 69 -3.7 25.4
12:35 1017 30.03 846 24.98 1.5 34.7 68 -3.7 25.3
12:40 1017 30.03 846 24.98 1.8 35.2 68 -3.6 25.6
12:45 1017 30.03 846 24.98 1.9 35.4 66 -3.7 25.3
12:50 1017 30.03 846 24.98 2.4 36.3 62 -4.2 24.5
12:55 1017 30.03 846 24.98 3 37.3 63 -3.4 25.9
13:00 1017 30.03 846 24.98 3.3 37.9 62 -3.4 25.9
13:05 1017 30.03 846 24.98 3.5 38.3 61 -3.3 26.1
13:10 1016 30 846 24.98 3.4 38.2 60 -3.7 25.3
13:15 1016 30 845 24.95 3.5 38.2 60 -3.6 25.5
13:20 1016 30 845 24.95 3.4 38.1 60 -3.7 25.3
13:25 1016 30 845 24.95 3.6 38.6 59 -3.7 25.3
13:30 1016 30 845 24.95 4.3 39.7 57 -3.4 25.8
13:35 1016 30 845 24.95 4.8 40.7 56 -3.2 26.2
13:40 1016 30 845 24.95 4.7 40.5 57 -3 26.5
13:45 1016 30 845 24.95 4.8 40.6 57 -3 26.6
13:50 1016 30 845 24.95 4.7 40.4 58 -2.9 26.8
13:55 1016 30 845 24.95 4.5 40.1 58 -3 26.6
14:00 1016 30 845 24.95 4.7 40.5 57 -3.1 26.3
14:05 1016 30 845 24.95 4.6 40.3 57 -3.2 26.3
14:10 1016 30 846 24.98 4.1 39.4 57 -3.5 25.7
14:15 1016 30 845 24.95 3.9 39 59 -3.4 26
14:20 1016 30 845 24.95 2.9 37.2 67 -2.7 27.1
14:25 1016 30 846 24.98 2.1 35.9 67 -3.3 26.1
14:30 1016 30 845 24.95 2.2 36 69 -3 26.7
14:35 1016 30 845 24.95 2.4 36.2 66 -3.4 25.9
14:40 1016 30 845 24.95 2.1 35.8 66 -3.5 25.7
14:45 1016 30 845 24.95 2.3 36.2 66 -3.4 25.8
14:50 1016 30 845 24.95 2.6 36.6 64 -3.6 25.5
14:55 1016 30 845 24.95 2.7 36.9 63 -3.5 25.7
15:00 1016 30 845 24.95 3.1 37.5 61 -3.8 25.2
15:05 1016 30 845 24.95 3.3 38 61 -3.5 25.7
15:10 1016 30 845 24.95 3.6 38.4 59 -3.8 25.2
15:15 1016 30 845 24.95 4 39.3 57 -3.7 25.4
15:20 1016 30 845 24.95 4.4 39.9 56 -3.6 25.4
15:25 1016 30 845 24.95 4.8 40.7 54 -3.8 25.2
15:30 1016 30 845 24.95 5 40.9 53 -3.8 25.2
15:35 1016 30 845 24.95 4.7 40.5 54 -3.8 25.2
15:40 1016 30 845 24.95 4.7 40.5 54 -3.9 25
15:45 1016 30 845 24.95 4.6 40.2 54 -4 24.8
15:50 1016 30 845 24.95 4.2 39.5 54 -4.2 24.5
15:55 1016 30 845 24.95 4.5 40.1 54 -4 24.7
16:00 1016 30 845 24.95 4.5 40.1 55 -3.9 25
16:05 1016 30 845 24.95 4.5 40 55 -3.8 25.1
16:10 1016 30 845 24.95 4.4 39.9 55 -3.9 25
16:15 1016 30 845 24.95 4.6 40.3 54 -3.8 25.1
16:20 1016 30 845 24.95 4.6 40.4 54 -3.8 25.2
16:25 1016 30 845 24.95 4.6 40.3 53 -4.1 24.7
16:30 1015 29.97 845 24.95 4.5 40.1 54 -4.1 24.7
16:35 1016 30 845 24.95 4.6 40.3 54 -3.9 25
16:40 1015 29.97 845 24.95 4.8 40.6 54 -3.8 25.2
16:45 1016 30 845 24.95 4.8 40.7 54 -3.7 25.3
16:50 1015 29.97 845 24.95 4.9 40.7 54 -3.6 25.6
16:55 1015 29.97 845 24.95 4.7 40.5 55 -3.5 25.7
17:00 1015 29.97 845 24.95 4.6 40.2 57 -3.2 26.2
17:05 1015 29.97 844 24.92 4.1 39.4 58 -3.4 25.9
17:10 1015 29.97 844 24.92 3.9 39.1 59 -3.5 25.8
17:15 1015 29.97 845 24.95 3.8 38.9 59 -3.3 26
17:20 1015 29.97 845 24.95 3.7 38.7 58 -3.8 25.2
17:25 1015 29.97 845 24.95 3.7 38.6 57 -4.2 24.5
17:30 1016 30 845 24.95 3.8 38.8 57 -4.1 24.7
17:35 1016 30 845 24.95 4 39.2 55 -4.2 24.5
17:40 1016 30 845 24.95 4 39.2 55 -4.2 24.4
17:45 1015 29.97 845 24.95 4.1 39.3 54 -4.3 24.3
17:50 1015 29.97 845 24.95 4 39.2 55 -4.2 24.4
17:55 1016 30 845 24.95 3.9 39.1 57 -3.8 25.2
18:00 1016 30 845 24.95 3.8 38.9 56 -4.1 24.6
18:05 1016 30 845 24.95 3.8 38.8 58 -3.7 25.4
18:10 1016 30 845 24.95 3.6 38.5 59 -3.8 25.2
18:15 1016 30 845 24.95 3.7 38.7 59 -3.5 25.8
18:20 1016 30 845 24.95 3.2 37.8 62 -3.3 26.1
18:25 1016 30 845 24.95 3.2 37.8 60 -3.8 25.1
18:30 1016 30 845 24.95 3.6 38.4 63 -2.9 26.8
18:35 1016 30 845 24.95 3.6 38.4 55 -4.6 23.8
18:40 1016 30 845 24.95 4.1 39.4 59 -3.3 26.1
18:45 1016 30 845 24.95 4 39.2 58 -3.5 25.7
18:50 1016 30 845 24.95 3.6 38.4 60 -3.5 25.6
18:55 1016 30 845 24.95 3.8 38.9 58 -3.7 25.4
19:00 1016 30 845 24.95 3.7 38.7 59 -3.6 25.6
19:05 1016 30 845 24.95 3.8 38.8 56 -4.1 24.6
19:10 1016 30 845 24.95 4.1 39.4 59 -3.3 26.1
19:15 1016 30 845 24.95 3.7 38.6 63 -2.7 27.2
19:20 1016 30 845 24.95 3.4 38.1 60 -3.7 25.4
19:25 1016 30 845 24.95 3.1 37.6 66 -2.7 27.2
19:30 1016 30 845 24.95 2.8 37 65 -3.1 26.5
19:35 1016 30 845 24.95 2.9 37.1 61 -3.9 24.9
19:40 1016 30 845 24.95 3.1 37.5 64 -3.1 26.4
19:45 1016 30 845 24.95 2.7 36.9 65 -3.3 26.1
19:50 1016 30 845 24.95 2.5 36.5 65 -3.5 25.8
19:55 1016 30 845 24.95 2.5 36.5 64 -3.6 25.5
20:00 1016 30 845 24.95 2.4 36.3 64 -3.7 25.4
20:05 1016 30 845 24.95 2.7 36.9 65 -3.2 26.2
20:10 1016 30 845 24.95 2.5 36.5 65 -3.5 25.7
20:15 1016 30 845 24.95 2.4 36.3 66 -3.3 26.1
20:20 1016 30 845 24.95 2.1 35.8 68 -3.1 26.4
20:25 1016 30 845 24.95 2 35.6 67 -3.6 25.5
20:30 1016 30 845 24.95 2.3 36.2 67 -3.2 26.2
20:35 1016 30 845 24.95 2.7 36.8 58 -4.8 23.3
20:40 1016 30 845 24.95 3.1 37.5 65 -2.9 26.9
20:45 1016 30 845 24.95 2.1 35.8 66 -3.6 25.6
20:50 1016 30 845 24.95 2 35.5 67 -3.5 25.8
20:55 1016 30 845 24.95 1.6 35 66 -4 24.7
21:00 1016 30 845 24.95 1.9 35.4 66 -3.9 25
21:05 1016 30 845 24.95 1.6 34.9 67 -4 24.9
21:10 1016 30 845 24.95 1.6 34.9 64 -4.5 23.9
21:15 1016 30 845 24.95 1.5 34.6 70 -3.5 25.7
21:20 1016 30 845 24.95 1.2 34.1 64 -4.8 23.3
21:25 1016 30 845 24.95 1.8 35.2 63 -4.4 24
21:30 1016 30 845 24.95 2.1 35.8 62 -4.4 24.1
21:35 1016 30 845 24.95 2.2 36 61 -4.5 23.8
21:40 1016 30 845 24.95 2.7 36.8 55 -5.4 22.3
21:45 1016 30 845 24.95 3.2 37.8 53 -5.4 22.3
21:50 1016 30 845 24.95 3.5 38.2 54 -4.9 23.2
21:55 1016 30 845 24.95 3.4 38.1 55 -4.8 23.4
22:00 1016 30 845 24.95 3.3 37.9 55 -4.8 23.3
22:05 1016 30 845 24.95 3.2 37.8 57 -4.6 23.8
22:10 1016 30 845 24.95 2.7 36.9 62 -3.9 24.9
22:15 1016 30 845 24.95 2.5 36.5 60 -4.5 23.9
22:20 1016 30 845 24.95 2.8 37 61 -4.1 24.7
22:25 1016 30 845 24.95 2.5 36.5 60 -4.4 24.1
22:30 1016 30 845 24.95 2 35.6 60 -4.9 23.1
22:35 1016 30 845 24.95 2.2 35.9 56 -5.7 21.8
22:40 1016 30 845 24.95 2.5 36.4 54 -5.9 21.4
22:45 1016 30 845 24.95 2.3 36.2 55 -5.7 21.7
22:50 1016 30 845 24.95 1.3 34.3 61 -5.3 22.4
22:55 1016 30 845 24.95 0.8 33.5 59 -6.2 20.8
23:00 1016 30 845 24.95 1.3 34.3 57 -6.3 20.7
23:05 1016 30 845 24.95 1.4 34.4 58 -6.1 21.1
23:10 1016 30 845 24.95 1.6 34.8 55 -6.6 20.2
23:15 1016 30 845 24.95 2 35.5 55 -6.1 21
23:20 1016 30 845 24.95 1.8 35.2 59 -5.5 22.2
23:25 1016 30 845 24.95 1.2 34.1 60 -5.7 21.7
23:30 1016 30 845 24.95 1.1 33.9 60 -5.9 21.5
23:35 1016 30 845 24.95 0.7 33.3 62 -5.7 21.8
23:40 1016 30 845 24.95 0.4 32.7 64 -5.7 21.8
23:45 1016 30 845 24.95 0.7 33.2 61 -5.9 21.3
23:50 1016 30 845 24.95 0.9 33.5 62 -5.6 22
23:55 1016 30 845 24.95 -0.4 31.3 71 -5.1 22.8
24:00 1016 30 845 24.95 -0.8 30.6 69 -5.8 21.6